sensor_id;sensor_type;location;lat;lon;timestamp;temperature;humidity
61253;DHT22;47127;47.516;8.596;2023-03-03T00:01:01;1.90;99.90
61253;DHT22;47127;47.516;8.596;2023-03-03T00:03:26;2.00;99.90
61253;DHT22;47127;47.516;8.596;2023-03-03T00:05:53;2.00;99.90
61253;DHT22;47127;47.516;8.596;2023-03-03T00:08:20;1.90;99.90
61253;DHT22;47127;47.516;8.596;2023-03-03T00:10:46;2.00;99.90
61253;DHT22;47127;47.516;8.596;2023-03-03T00:13:17;2.00;99.90
61253;DHT22;47127;47.516;8.596;2023-03-03T00:15:43;2.10;99.90
61253;DHT22;47127;47.516;8.596;2023-03-03T00:18:29;2.10;99.90
61253;DHT22;47127;47.516;8.596;2023-03-03T00:20:57;2.10;99.90
61253;DHT22;47127;47.516;8.596;2023-03-03T00:23:29;2.00;99.90
61253;DHT22;47127;47.516;8.596;2023-03-03T00:25:56;2.10;99.90
61253;DHT22;47127;47.516;8.596;2023-03-03T00:28:31;2.10;99.90
61253;DHT22;47127;47.516;8.596;2023-03-03T00:31:01;2.10;99.90
61253;DHT22;47127;47.516;8.596;2023-03-03T00:33:33;2.10;99.90
61253;DHT22;47127;47.516;8.596;2023-03-03T00:36:30;2.10;99.90
61253;DHT22;47127;47.516;8.596;2023-03-03T00:41:48;2.00;99.90
61253;DHT22;47127;47.516;8.596;2023-03-03T00:46:55;2.00;99.90
61253;DHT22;47127;47.516;8.596;2023-03-03T00:49:25;2.10;99.90
61253;DHT22;47127;47.516;8.596;2023-03-03T00:51:52;2.20;99.90
61253;DHT22;47127;47.516;8.596;2023-03-03T00:54:18;2.20;99.90
61253;DHT22;47127;47.516;8.596;2023-03-03T00:56:44;2.20;99.90
61253;DHT22;47127;47.516;8.596;2023-03-03T00:59:09;2.20;99.90
61253;DHT22;47127;47.516;8.596;2023-03-03T01:01:35;2.30;99.90
61253;DHT22;47127;47.516;8.596;2023-03-03T01:04:01;2.20;99.90
61253;DHT22;47127;47.516;8.596;2023-03-03T01:06:26;2.20;99.90
61253;DHT22;47127;47.516;8.596;2023-03-03T01:08:52;2.10;99.90
61253;DHT22;47127;47.516;8.596;2023-03-03T01:11:23;2.10;99.90
61253;DHT22;47127;47.516;8.596;2023-03-03T01:13:51;2.10;99.90
61253;DHT22;47127;47.516;8.596;2023-03-03T01:16:18;2.20;99.90
61253;DHT22;47127;47.516;8.596;2023-03-03T01:18:44;2.20;99.90
61253;DHT22;47127;47.516;8.596;2023-03-03T01:21:10;2.10;99.90
61253;DHT22;47127;47.516;8.596;2023-03-03T01:23:36;2.10;99.90
61253;DHT22;47127;47.516;8.596;2023-03-03T01:26:04;2.00;99.90
61253;DHT22;47127;47.516;8.596;2023-03-03T01:28:29;2.00;99.90
61253;DHT22;47127;47.516;8.596;2023-03-03T01:31:01;2.00;99.90
61253;DHT22;47127;47.516;8.596;2023-03-03T01:33:26;2.00;99.90
61253;DHT22;47127;47.516;8.596;2023-03-03T01:35:52;2.00;99.90
61253;DHT22;47127;47.516;8.596;2023-03-03T01:38:18;2.00;99.90
61253;DHT22;47127;47.516;8.596;2023-03-03T01:40:52;2.10;99.90
61253;DHT22;47127;47.516;8.596;2023-03-03T01:43:18;2.10;99.90
61253;DHT22;47127;47.516;8.596;2023-03-03T01:48:29;2.20;99.90
61253;DHT22;47127;47.516;8.596;2023-03-03T01:54:15;2.30;99.90
61253;DHT22;47127;47.516;8.596;2023-03-03T01:56:15;2.20;99.90
61253;DHT22;47127;47.516;8.596;2023-03-03T01:58:47;2.10;99.90
61253;DHT22;47127;47.516;8.596;2023-03-03T02:01:18;2.10;99.90
61253;DHT22;47127;47.516;8.596;2023-03-03T02:03:46;2.20;99.90
61253;DHT22;47127;47.516;8.596;2023-03-03T02:06:15;2.20;99.90
61253;DHT22;47127;47.516;8.596;2023-03-03T02:08:55;2.20;99.90
61253;DHT22;47127;47.516;8.596;2023-03-03T02:11:24;2.30;99.90
61253;DHT22;47127;47.516;8.596;2023-03-03T02:13:51;2.20;99.90
61253;DHT22;47127;47.516;8.596;2023-03-03T02:16:16;2.20;99.90
61253;DHT22;47127;47.516;8.596;2023-03-03T02:18:44;2.20;99.90
61253;DHT22;47127;47.516;8.596;2023-03-03T02:21:13;2.30;99.90
61253;DHT22;47127;47.516;8.596;2023-03-03T02:26:21;2.20;99.90
61253;DHT22;47127;47.516;8.596;2023-03-03T02:28:48;2.20;99.90
61253;DHT22;47127;47.516;8.596;2023-03-03T02:31:16;2.10;99.90
61253;DHT22;47127;47.516;8.596;2023-03-03T02:33:45;2.10;99.90
61253;DHT22;47127;47.516;8.596;2023-03-03T02:36:18;2.20;99.90
61253;DHT22;47127;47.516;8.596;2023-03-03T02:39:13;2.20;99.90
61253;DHT22;47127;47.516;8.596;2023-03-03T02:42:01;2.10;99.90
61253;DHT22;47127;47.516;8.596;2023-03-03T02:44:32;2.10;99.90
61253;DHT22;47127;47.516;8.596;2023-03-03T02:46:58;2.20;99.90
61253;DHT22;47127;47.516;8.596;2023-03-03T02:49:27;2.20;99.90
61253;DHT22;47127;47.516;8.596;2023-03-03T02:51:54;2.20;99.90
61253;DHT22;47127;47.516;8.596;2023-03-03T02:54:21;2.30;99.90
61253;DHT22;47127;47.516;8.596;2023-03-03T02:56:47;2.30;99.90
61253;DHT22;47127;47.516;8.596;2023-03-03T02:59:13;2.40;99.90
61253;DHT22;47127;47.516;8.596;2023-03-03T03:01:39;2.40;99.90
61253;DHT22;47127;47.516;8.596;2023-03-03T03:04:10;2.40;99.90
61253;DHT22;47127;47.516;8.596;2023-03-03T03:06:36;2.40;99.90
61253;DHT22;47127;47.516;8.596;2023-03-03T03:09:03;2.30;99.90
61253;DHT22;47127;47.516;8.596;2023-03-03T03:11:29;2.40;99.90
61253;DHT22;47127;47.516;8.596;2023-03-03T03:13:54;2.40;99.90
61253;DHT22;47127;47.516;8.596;2023-03-03T03:16:20;2.30;99.90
61253;DHT22;47127;47.516;8.596;2023-03-03T03:18:45;2.40;99.90
61253;DHT22;47127;47.516;8.596;2023-03-03T03:21:12;2.50;99.90
61253;DHT22;47127;47.516;8.596;2023-03-03T03:23:39;2.50;99.90
61253;DHT22;47127;47.516;8.596;2023-03-03T03:26:05;2.60;99.90
61253;DHT22;47127;47.516;8.596;2023-03-03T03:28:31;2.60;99.90
61253;DHT22;47127;47.516;8.596;2023-03-03T03:30:57;2.60;99.90
61253;DHT22;47127;47.516;8.596;2023-03-03T03:33:23;2.60;99.90
61253;DHT22;47127;47.516;8.596;2023-03-03T03:35:49;2.60;99.90
61253;DHT22;47127;47.516;8.596;2023-03-03T03:38:15;2.60;99.90
61253;DHT22;47127;47.516;8.596;2023-03-03T03:40:42;2.50;99.90
61253;DHT22;47127;47.516;8.596;2023-03-03T03:43:07;2.50;99.90
61253;DHT22;47127;47.516;8.596;2023-03-03T03:45:33;2.60;99.90
61253;DHT22;47127;47.516;8.596;2023-03-03T03:47:59;2.60;99.90
61253;DHT22;47127;47.516;8.596;2023-03-03T03:50:24;2.60;99.90
61253;DHT22;47127;47.516;8.596;2023-03-03T03:52:50;2.60;99.90
61253;DHT22;47127;47.516;8.596;2023-03-03T03:55:15;2.60;99.90
61253;DHT22;47127;47.516;8.596;2023-03-03T03:57:41;2.60;99.90
61253;DHT22;47127;47.516;8.596;2023-03-03T04:00:09;2.60;99.90
61253;DHT22;47127;47.516;8.596;2023-03-03T04:02:35;2.60;99.90
61253;DHT22;47127;47.516;8.596;2023-03-03T04:05:02;2.60;99.90
61253;DHT22;47127;47.516;8.596;2023-03-03T04:07:28;2.60;99.90
61253;DHT22;47127;47.516;8.596;2023-03-03T04:09:53;2.50;99.90
61253;DHT22;47127;47.516;8.596;2023-03-03T04:12:19;2.40;99.90
61253;DHT22;47127;47.516;8.596;2023-03-03T04:14:44;2.50;99.90
61253;DHT22;47127;47.516;8.596;2023-03-03T04:17:17;2.50;99.90
61253;DHT22;47127;47.516;8.596;2023-03-03T04:19:43;2.50;99.90
61253;DHT22;47127;47.516;8.596;2023-03-03T04:22:09;2.50;99.90
61253;DHT22;47127;47.516;8.596;2023-03-03T04:24:34;2.50;99.90
61253;DHT22;47127;47.516;8.596;2023-03-03T04:27:00;2.60;99.90
61253;DHT22;47127;47.516;8.596;2023-03-03T04:29:25;2.60;99.90
61253;DHT22;47127;47.516;8.596;2023-03-03T04:31:51;2.60;99.90
61253;DHT22;47127;47.516;8.596;2023-03-03T04:34:17;2.60;99.90
61253;DHT22;47127;47.516;8.596;2023-03-03T04:36:42;2.70;99.90
61253;DHT22;47127;47.516;8.596;2023-03-03T04:39:08;2.80;99.90
61253;DHT22;47127;47.516;8.596;2023-03-03T04:41:33;2.80;99.90
61253;DHT22;47127;47.516;8.596;2023-03-03T04:43:59;2.80;99.90
61253;DHT22;47127;47.516;8.596;2023-03-03T04:46:25;2.70;99.90
61253;DHT22;47127;47.516;8.596;2023-03-03T04:48:50;2.70;99.90
61253;DHT22;47127;47.516;8.596;2023-03-03T04:51:16;2.80;99.90
61253;DHT22;47127;47.516;8.596;2023-03-03T04:53:43;2.70;99.90
61253;DHT22;47127;47.516;8.596;2023-03-03T04:56:08;2.70;99.90
61253;DHT22;47127;47.516;8.596;2023-03-03T04:58:34;2.80;99.90
61253;DHT22;47127;47.516;8.596;2023-03-03T05:00:59;2.70;99.90
61253;DHT22;47127;47.516;8.596;2023-03-03T05:03:25;2.80;99.90
61253;DHT22;47127;47.516;8.596;2023-03-03T05:05:51;2.70;99.90
61253;DHT22;47127;47.516;8.596;2023-03-03T05:08:17;2.60;99.90
61253;DHT22;47127;47.516;8.596;2023-03-03T05:10:42;2.70;99.90
61253;DHT22;47127;47.516;8.596;2023-03-03T05:13:09;2.70;99.90
61253;DHT22;47127;47.516;8.596;2023-03-03T05:15:34;2.80;99.90
61253;DHT22;47127;47.516;8.596;2023-03-03T05:18:00;2.80;99.90
61253;DHT22;47127;47.516;8.596;2023-03-03T05:20:25;2.90;99.90
61253;DHT22;47127;47.516;8.596;2023-03-03T05:22:51;2.90;99.90
61253;DHT22;47127;47.516;8.596;2023-03-03T05:25:17;2.90;99.90
61253;DHT22;47127;47.516;8.596;2023-03-03T05:27:43;3.00;99.90
61253;DHT22;47127;47.516;8.596;2023-03-03T05:30:09;3.00;99.90
61253;DHT22;47127;47.516;8.596;2023-03-03T05:32:35;3.00;99.90
61253;DHT22;47127;47.516;8.596;2023-03-03T05:35:01;3.00;99.90
61253;DHT22;47127;47.516;8.596;2023-03-03T05:37:27;2.90;99.90
61253;DHT22;47127;47.516;8.596;2023-03-03T05:39:52;2.90;99.90
61253;DHT22;47127;47.516;8.596;2023-03-03T05:42:18;2.90;99.90
61253;DHT22;47127;47.516;8.596;2023-03-03T05:44:43;2.80;99.90
61253;DHT22;47127;47.516;8.596;2023-03-03T05:47:09;2.80;99.90
61253;DHT22;47127;47.516;8.596;2023-03-03T05:49:35;2.90;99.90
61253;DHT22;47127;47.516;8.596;2023-03-03T05:52:02;2.90;99.90
61253;DHT22;47127;47.516;8.596;2023-03-03T05:54:28;3.00;99.90
61253;DHT22;47127;47.516;8.596;2023-03-03T05:56:53;3.00;99.90
61253;DHT22;47127;47.516;8.596;2023-03-03T05:59:19;3.00;99.90
61253;DHT22;47127;47.516;8.596;2023-03-03T06:01:45;3.10;99.90
61253;DHT22;47127;47.516;8.596;2023-03-03T06:04:10;3.10;99.90
61253;DHT22;47127;47.516;8.596;2023-03-03T06:06:36;3.00;99.90
61253;DHT22;47127;47.516;8.596;2023-03-03T06:09:03;3.10;99.90
61253;DHT22;47127;47.516;8.596;2023-03-03T06:11:29;3.10;99.90
61253;DHT22;47127;47.516;8.596;2023-03-03T06:13:54;3.10;99.90
61253;DHT22;47127;47.516;8.596;2023-03-03T06:16:20;3.20;99.90
61253;DHT22;47127;47.516;8.596;2023-03-03T06:18:45;3.10;99.90
61253;DHT22;47127;47.516;8.596;2023-03-03T06:21:11;3.10;99.90
61253;DHT22;47127;47.516;8.596;2023-03-03T06:23:36;3.10;99.90
61253;DHT22;47127;47.516;8.596;2023-03-03T06:26:02;3.10;99.90
61253;DHT22;47127;47.516;8.596;2023-03-03T06:28:28;3.20;99.90
61253;DHT22;47127;47.516;8.596;2023-03-03T06:30:54;3.30;99.90
61253;DHT22;47127;47.516;8.596;2023-03-03T06:33:20;3.30;99.90
61253;DHT22;47127;47.516;8.596;2023-03-03T06:35:54;3.30;99.90
61253;DHT22;47127;47.516;8.596;2023-03-03T06:38:20;3.30;99.90
61253;DHT22;47127;47.516;8.596;2023-03-03T06:40:46;3.40;99.90
61253;DHT22;47127;47.516;8.596;2023-03-03T06:43:12;3.40;99.90
61253;DHT22;47127;47.516;8.596;2023-03-03T06:45:39;3.30;99.90
61253;DHT22;47127;47.516;8.596;2023-03-03T06:48:05;3.30;99.90
61253;DHT22;47127;47.516;8.596;2023-03-03T06:50:31;3.20;99.90
61253;DHT22;47127;47.516;8.596;2023-03-03T06:53:06;3.30;99.90
61253;DHT22;47127;47.516;8.596;2023-03-03T06:55:35;3.30;99.90
61253;DHT22;47127;47.516;8.596;2023-03-03T06:58:03;3.30;99.90
61253;DHT22;47127;47.516;8.596;2023-03-03T07:00:30;3.40;99.90
61253;DHT22;47127;47.516;8.596;2023-03-03T07:02:59;3.40;99.90
61253;DHT22;47127;47.516;8.596;2023-03-03T07:05:26;3.40;99.90
61253;DHT22;47127;47.516;8.596;2023-03-03T07:07:56;3.40;99.90
61253;DHT22;47127;47.516;8.596;2023-03-03T07:10:23;3.50;99.90
61253;DHT22;47127;47.516;8.596;2023-03-03T07:12:49;3.40;99.90
61253;DHT22;47127;47.516;8.596;2023-03-03T07:15:15;3.50;99.90
61253;DHT22;47127;47.516;8.596;2023-03-03T07:17:49;3.60;99.90
61253;DHT22;47127;47.516;8.596;2023-03-03T07:20:35;3.60;99.90
61253;DHT22;47127;47.516;8.596;2023-03-03T07:23:23;3.60;99.90
61253;DHT22;47127;47.516;8.596;2023-03-03T07:25:50;3.70;99.90
61253;DHT22;47127;47.516;8.596;2023-03-03T07:28:27;3.70;99.90
61253;DHT22;47127;47.516;8.596;2023-03-03T07:30:55;3.80;99.90
61253;DHT22;47127;47.516;8.596;2023-03-03T07:33:30;3.80;99.90
61253;DHT22;47127;47.516;8.596;2023-03-03T07:35:59;3.80;99.90
61253;DHT22;47127;47.516;8.596;2023-03-03T07:38:34;3.90;99.90
61253;DHT22;47127;47.516;8.596;2023-03-03T07:41:04;4.00;99.90
61253;DHT22;47127;47.516;8.596;2023-03-03T07:46:25;3.90;99.90
61253;DHT22;47127;47.516;8.596;2023-03-03T07:48:56;3.90;99.90
61253;DHT22;47127;47.516;8.596;2023-03-03T07:51:37;4.00;99.90
61253;DHT22;47127;47.516;8.596;2023-03-03T07:54:29;4.10;99.90
61253;DHT22;47127;47.516;8.596;2023-03-03T07:57:47;4.20;99.90
61253;DHT22;47127;47.516;8.596;2023-03-03T07:59:53;4.30;99.90
61253;DHT22;47127;47.516;8.596;2023-03-03T08:02:39;4.30;99.90
61253;DHT22;47127;47.516;8.596;2023-03-03T08:05:24;4.40;99.90
61253;DHT22;47127;47.516;8.596;2023-03-03T08:07:51;4.50;99.90
61253;DHT22;47127;47.516;8.596;2023-03-03T08:10:49;4.40;99.90
61253;DHT22;47127;47.516;8.596;2023-03-03T08:18:48;4.50;99.90
61253;DHT22;47127;47.516;8.596;2023-03-03T08:23:43;4.60;99.90
61253;DHT22;47127;47.516;8.596;2023-03-03T08:26:10;4.70;99.90
61253;DHT22;47127;47.516;8.596;2023-03-03T08:28:37;4.70;99.90
61253;DHT22;47127;47.516;8.596;2023-03-03T08:31:03;4.80;99.90
61253;DHT22;47127;47.516;8.596;2023-03-03T08:33:28;4.80;99.90
61253;DHT22;47127;47.516;8.596;2023-03-03T08:35:54;4.70;99.90
61253;DHT22;47127;47.516;8.596;2023-03-03T08:38:20;4.70;99.90
61253;DHT22;47127;47.516;8.596;2023-03-03T08:40:48;4.80;99.90
61253;DHT22;47127;47.516;8.596;2023-03-03T08:43:14;4.90;99.90
61253;DHT22;47127;47.516;8.596;2023-03-03T08:45:47;4.90;99.90
61253;DHT22;47127;47.516;8.596;2023-03-03T08:48:13;5.00;99.90
61253;DHT22;47127;47.516;8.596;2023-03-03T08:50:40;5.10;99.90
61253;DHT22;47127;47.516;8.596;2023-03-03T08:53:06;5.10;99.90
61253;DHT22;47127;47.516;8.596;2023-03-03T08:55:32;5.10;99.90
61253;DHT22;47127;47.516;8.596;2023-03-03T08:57:58;5.10;99.90
61253;DHT22;47127;47.516;8.596;2023-03-03T09:00:24;5.10;99.90
61253;DHT22;47127;47.516;8.596;2023-03-03T09:02:51;5.10;99.90
61253;DHT22;47127;47.516;8.596;2023-03-03T09:05:19;5.30;99.90
61253;DHT22;47127;47.516;8.596;2023-03-03T09:07:45;5.20;99.90
61253;DHT22;47127;47.516;8.596;2023-03-03T09:10:14;5.20;99.90
61253;DHT22;47127;47.516;8.596;2023-03-03T09:12:43;5.30;99.90
61253;DHT22;47127;47.516;8.596;2023-03-03T09:15:22;5.40;99.90
61253;DHT22;47127;47.516;8.596;2023-03-03T09:17:48;5.60;99.90
61253;DHT22;47127;47.516;8.596;2023-03-03T09:20:21;5.60;99.90
61253;DHT22;47127;47.516;8.596;2023-03-03T09:22:47;5.50;99.90
61253;DHT22;47127;47.516;8.596;2023-03-03T09:25:32;5.60;99.90
61253;DHT22;47127;47.516;8.596;2023-03-03T09:27:59;5.60;99.90
61253;DHT22;47127;47.516;8.596;2023-03-03T09:32:50;5.80;99.90
61253;DHT22;47127;47.516;8.596;2023-03-03T09:35:37;5.70;99.90
61253;DHT22;47127;47.516;8.596;2023-03-03T09:38:31;5.80;99.90
61253;DHT22;47127;47.516;8.596;2023-03-03T09:44:35;5.80;99.90
61253;DHT22;47127;47.516;8.596;2023-03-03T09:46:42;5.90;99.90
61253;DHT22;47127;47.516;8.596;2023-03-03T09:49:31;5.80;99.90
61253;DHT22;47127;47.516;8.596;2023-03-03T10:00:28;6.20;99.90
61253;DHT22;47127;47.516;8.596;2023-03-03T10:06:24;6.40;99.90
61253;DHT22;47127;47.516;8.596;2023-03-03T10:09:01;6.40;99.90
61253;DHT22;47127;47.516;8.596;2023-03-03T10:14:47;6.70;99.90
61253;DHT22;47127;47.516;8.596;2023-03-03T10:22:32;6.80;99.90
61253;DHT22;47127;47.516;8.596;2023-03-03T10:27:43;6.80;99.90
61253;DHT22;47127;47.516;8.596;2023-03-03T10:30:37;7.00;99.90
61253;DHT22;47127;47.516;8.596;2023-03-03T10:33:11;7.10;99.90
61253;DHT22;47127;47.516;8.596;2023-03-03T10:43:56;7.50;99.90
61253;DHT22;47127;47.516;8.596;2023-03-03T10:53:14;7.70;99.90
61253;DHT22;47127;47.516;8.596;2023-03-03T10:55:30;7.70;99.90
61253;DHT22;47127;47.516;8.596;2023-03-03T11:00:44;7.60;99.90
61253;DHT22;47127;47.516;8.596;2023-03-03T11:06:00;7.70;99.90
61253;DHT22;47127;47.516;8.596;2023-03-03T11:08:33;7.50;99.90
61253;DHT22;47127;47.516;8.596;2023-03-03T11:22:16;8.00;99.90
61253;DHT22;47127;47.516;8.596;2023-03-03T11:24:52;8.00;99.90
61253;DHT22;47127;47.516;8.596;2023-03-03T11:30:22;8.10;99.90
61253;DHT22;47127;47.516;8.596;2023-03-03T11:33:00;8.10;99.90
61253;DHT22;47127;47.516;8.596;2023-03-03T11:36:03;8.00;99.90
61253;DHT22;47127;47.516;8.596;2023-03-03T11:38:47;8.10;99.90
61253;DHT22;47127;47.516;8.596;2023-03-03T11:41:35;8.30;99.90
61253;DHT22;47127;47.516;8.596;2023-03-03T11:44:15;8.20;99.90
61253;DHT22;47127;47.516;8.596;2023-03-03T11:46:49;8.40;99.90
61253;DHT22;47127;47.516;8.596;2023-03-03T11:54:47;8.70;99.90
61253;DHT22;47127;47.516;8.596;2023-03-03T12:00:15;8.80;99.90
61253;DHT22;47127;47.516;8.596;2023-03-03T12:03:24;8.90;99.90
61253;DHT22;47127;47.516;8.596;2023-03-03T12:05:53;8.80;99.90
61253;DHT22;47127;47.516;8.596;2023-03-03T12:27:42;9.10;99.90
61253;DHT22;47127;47.516;8.596;2023-03-03T12:36:09;9.50;99.90
61253;DHT22;47127;47.516;8.596;2023-03-03T12:41:45;10.00;99.90
61253;DHT22;47127;47.516;8.596;2023-03-03T12:44:23;10.10;99.90
61253;DHT22;47127;47.516;8.596;2023-03-03T12:49:19;9.80;99.90
61253;DHT22;47127;47.516;8.596;2023-03-03T12:51:56;10.10;99.90
61253;DHT22;47127;47.516;8.596;2023-03-03T12:57:45;10.70;98.90
61253;DHT22;47127;47.516;8.596;2023-03-03T13:03:05;10.40;99.20
61253;DHT22;47127;47.516;8.596;2023-03-03T13:05:52;10.70;99.20
61253;DHT22;47127;47.516;8.596;2023-03-03T13:10:59;11.00;98.30
61253;DHT22;47127;47.516;8.596;2023-03-03T13:13:47;11.20;98.30
61253;DHT22;47127;47.516;8.596;2023-03-03T13:16:52;11.20;97.80
61253;DHT22;47127;47.516;8.596;2023-03-03T13:19:50;11.20;97.70
61253;DHT22;47127;47.516;8.596;2023-03-03T13:22:37;11.20;97.80
61253;DHT22;47127;47.516;8.596;2023-03-03T13:25:33;11.10;97.60
61253;DHT22;47127;47.516;8.596;2023-03-03T13:28:05;10.80;98.00
61253;DHT22;47127;47.516;8.596;2023-03-03T13:30:34;11.00;98.30
61253;DHT22;47127;47.516;8.596;2023-03-03T13:33:09;11.20;97.70
61253;DHT22;47127;47.516;8.596;2023-03-03T13:38:11;11.10;98.00
61253;DHT22;47127;47.516;8.596;2023-03-03T13:40:47;11.20;97.70
61253;DHT22;47127;47.516;8.596;2023-03-03T13:43:23;11.30;97.50
61253;DHT22;47127;47.516;8.596;2023-03-03T13:46:13;11.50;97.40
61253;DHT22;47127;47.516;8.596;2023-03-03T13:53:56;13.20;97.60
61253;DHT22;47127;47.516;8.596;2023-03-03T14:02:12;11.80;96.70
61253;DHT22;47127;47.516;8.596;2023-03-03T14:05:12;11.90;96.90
61253;DHT22;47127;47.516;8.596;2023-03-03T14:08:03;11.90;96.20
61253;DHT22;47127;47.516;8.596;2023-03-03T14:10:38;11.60;96.70
61253;DHT22;47127;47.516;8.596;2023-03-03T14:13:28;11.70;97.00
61253;DHT22;47127;47.516;8.596;2023-03-03T14:16:06;11.90;96.50
61253;DHT22;47127;47.516;8.596;2023-03-03T14:18:45;11.90;96.30
61253;DHT22;47127;47.516;8.596;2023-03-03T14:21:27;12.00;96.20
61253;DHT22;47127;47.516;8.596;2023-03-03T14:24:08;12.20;96.40
61253;DHT22;47127;47.516;8.596;2023-03-03T14:26:49;12.20;96.00
61253;DHT22;47127;47.516;8.596;2023-03-03T14:32:00;12.00;95.90
61253;DHT22;47127;47.516;8.596;2023-03-03T14:34:36;11.70;96.50
61253;DHT22;47127;47.516;8.596;2023-03-03T14:37:24;11.30;97.20
61253;DHT22;47127;47.516;8.596;2023-03-03T14:40:06;11.30;97.60
61253;DHT22;47127;47.516;8.596;2023-03-03T14:45:37;11.10;97.90
61253;DHT22;47127;47.516;8.596;2023-03-03T14:53:42;10.30;99.00
61253;DHT22;47127;47.516;8.596;2023-03-03T14:56:22;10.20;99.50
61253;DHT22;47127;47.516;8.596;2023-03-03T14:58:50;10.20;99.40
61253;DHT22;47127;47.516;8.596;2023-03-03T15:01:36;10.20;99.60
61253;DHT22;47127;47.516;8.596;2023-03-03T15:04:22;10.10;99.80
61253;DHT22;47127;47.516;8.596;2023-03-03T15:06:50;10.00;99.90
61253;DHT22;47127;47.516;8.596;2023-03-03T15:14:47;10.90;99.20
61253;DHT22;47127;47.516;8.596;2023-03-03T15:22:52;11.40;97.80
61253;DHT22;47127;47.516;8.596;2023-03-03T15:25:32;11.80;97.10
61253;DHT22;47127;47.516;8.596;2023-03-03T15:36:16;11.90;95.70
61253;DHT22;47127;47.516;8.596;2023-03-03T15:38:49;11.90;95.30
61253;DHT22;47127;47.516;8.596;2023-03-03T15:41:32;11.90;95.40
61253;DHT22;47127;47.516;8.596;2023-03-03T15:46:50;11.80;94.90
61253;DHT22;47127;47.516;8.596;2023-03-03T15:49:54;12.00;95.10
61253;DHT22;47127;47.516;8.596;2023-03-03T15:52:41;12.10;94.30
61253;DHT22;47127;47.516;8.596;2023-03-03T15:58:11;11.60;95.00
61253;DHT22;47127;47.516;8.596;2023-03-03T16:03:54;11.30;95.10
61253;DHT22;47127;47.516;8.596;2023-03-03T16:17:48;10.00;97.90
61253;DHT22;47127;47.516;8.596;2023-03-03T16:20:22;9.90;98.60
61253;DHT22;47127;47.516;8.596;2023-03-03T16:31:06;9.30;99.90
61253;DHT22;47127;47.516;8.596;2023-03-03T16:34:17;9.20;99.90
61253;DHT22;47127;47.516;8.596;2023-03-03T16:39:40;9.10;99.90
61253;DHT22;47127;47.516;8.596;2023-03-03T16:42:20;9.10;99.90
61253;DHT22;47127;47.516;8.596;2023-03-03T16:47:57;8.80;99.90
61253;DHT22;47127;47.516;8.596;2023-03-03T16:50:59;8.80;99.90
61253;DHT22;47127;47.516;8.596;2023-03-03T16:56:11;8.40;99.90
61253;DHT22;47127;47.516;8.596;2023-03-03T16:59:08;8.40;99.90
61253;DHT22;47127;47.516;8.596;2023-03-03T17:01:57;8.30;99.90
61253;DHT22;47127;47.516;8.596;2023-03-03T17:04:49;8.20;99.90
61253;DHT22;47127;47.516;8.596;2023-03-03T17:07:33;8.10;99.90
61253;DHT22;47127;47.516;8.596;2023-03-03T17:20:57;7.90;99.90
61253;DHT22;47127;47.516;8.596;2023-03-03T17:23:50;7.80;99.90
61253;DHT22;47127;47.516;8.596;2023-03-03T17:26:29;7.70;99.90
61253;DHT22;47127;47.516;8.596;2023-03-03T17:37:09;7.00;99.90
61253;DHT22;47127;47.516;8.596;2023-03-03T17:43:08;7.10;99.90
61253;DHT22;47127;47.516;8.596;2023-03-03T17:45:39;7.10;99.90
61253;DHT22;47127;47.516;8.596;2023-03-03T17:48:20;7.20;99.90
61253;DHT22;47127;47.516;8.596;2023-03-03T17:51:14;7.10;99.90
61253;DHT22;47127;47.516;8.596;2023-03-03T17:53:59;7.10;99.90
61253;DHT22;47127;47.516;8.596;2023-03-03T17:56:50;7.00;99.90
61253;DHT22;47127;47.516;8.596;2023-03-03T18:07:45;7.10;99.90
61253;DHT22;47127;47.516;8.596;2023-03-03T18:10:43;7.20;99.90
61253;DHT22;47127;47.516;8.596;2023-03-03T18:16:05;7.20;99.90
61253;DHT22;47127;47.516;8.596;2023-03-03T18:24:25;7.10;99.90
61253;DHT22;47127;47.516;8.596;2023-03-03T18:26:52;7.10;99.90
61253;DHT22;47127;47.516;8.596;2023-03-03T18:42:39;7.00;99.90
61253;DHT22;47127;47.516;8.596;2023-03-03T18:48:09;6.90;99.90
61253;DHT22;47127;47.516;8.596;2023-03-03T18:50:41;6.80;99.90
61253;DHT22;47127;47.516;8.596;2023-03-03T18:55:42;6.60;99.90
61253;DHT22;47127;47.516;8.596;2023-03-03T19:00:51;6.40;99.90
61253;DHT22;47127;47.516;8.596;2023-03-03T19:03:29;6.30;99.90
61253;DHT22;47127;47.516;8.596;2023-03-03T19:05:56;6.20;99.90
61253;DHT22;47127;47.516;8.596;2023-03-03T19:08:53;6.20;99.90
61253;DHT22;47127;47.516;8.596;2023-03-03T19:11:39;6.00;99.90
61253;DHT22;47127;47.516;8.596;2023-03-03T19:16:54;5.40;99.90
61253;DHT22;47127;47.516;8.596;2023-03-03T19:19:28;5.30;99.90
61253;DHT22;47127;47.516;8.596;2023-03-03T19:30:46;5.50;99.90
61253;DHT22;47127;47.516;8.596;2023-03-03T19:33:29;5.50;99.90
61253;DHT22;47127;47.516;8.596;2023-03-03T19:36:04;5.50;99.90
61253;DHT22;47127;47.516;8.596;2023-03-03T19:42:02;5.50;99.90
61253;DHT22;47127;47.516;8.596;2023-03-03T19:59:02;5.00;99.90
61253;DHT22;47127;47.516;8.596;2023-03-03T20:04:55;4.90;99.90
61253;DHT22;47127;47.516;8.596;2023-03-03T20:13:34;4.80;99.90
61253;DHT22;47127;47.516;8.596;2023-03-03T20:19:09;4.60;99.90
61253;DHT22;47127;47.516;8.596;2023-03-03T20:21:51;4.70;99.90
61253;DHT22;47127;47.516;8.596;2023-03-03T20:27:18;4.60;99.90
61253;DHT22;47127;47.516;8.596;2023-03-03T20:32:49;4.40;99.90
61253;DHT22;47127;47.516;8.596;2023-03-03T20:38:39;4.40;99.90
61253;DHT22;47127;47.516;8.596;2023-03-03T20:41:22;4.40;99.90
61253;DHT22;47127;47.516;8.596;2023-03-03T20:46:52;4.40;99.90
61253;DHT22;47127;47.516;8.596;2023-03-03T20:52:15;4.40;99.90
61253;DHT22;47127;47.516;8.596;2023-03-03T20:55:15;4.50;99.90
61253;DHT22;47127;47.516;8.596;2023-03-03T20:57:58;4.40;99.90
61253;DHT22;47127;47.516;8.596;2023-03-03T21:03:05;4.30;99.90
61253;DHT22;47127;47.516;8.596;2023-03-03T21:05:32;4.30;99.90
61253;DHT22;47127;47.516;8.596;2023-03-03T21:08:03;4.30;99.90
61253;DHT22;47127;47.516;8.596;2023-03-03T21:10:32;4.40;99.90
61253;DHT22;47127;47.516;8.596;2023-03-03T21:13:27;4.50;99.90
61253;DHT22;47127;47.516;8.596;2023-03-03T21:16:05;4.60;99.90
61253;DHT22;47127;47.516;8.596;2023-03-03T21:18:33;4.70;99.90
61253;DHT22;47127;47.516;8.596;2023-03-03T21:21:05;4.70;99.90
61253;DHT22;47127;47.516;8.596;2023-03-03T21:23:31;4.80;99.90
61253;DHT22;47127;47.516;8.596;2023-03-03T21:25:57;4.70;99.90
61253;DHT22;47127;47.516;8.596;2023-03-03T21:31:15;4.50;99.90
61253;DHT22;47127;47.516;8.596;2023-03-03T21:33:53;4.50;99.90
61253;DHT22;47127;47.516;8.596;2023-03-03T21:36:21;4.60;99.90
61253;DHT22;47127;47.516;8.596;2023-03-03T21:38:52;4.60;99.90
61253;DHT22;47127;47.516;8.596;2023-03-03T21:41:19;4.60;99.90
61253;DHT22;47127;47.516;8.596;2023-03-03T21:43:47;4.70;99.90
61253;DHT22;47127;47.516;8.596;2023-03-03T21:46:17;4.70;99.90
61253;DHT22;47127;47.516;8.596;2023-03-03T21:48:43;4.70;99.90
61253;DHT22;47127;47.516;8.596;2023-03-03T21:51:09;4.70;99.90
61253;DHT22;47127;47.516;8.596;2023-03-03T21:53:36;4.70;99.90
61253;DHT22;47127;47.516;8.596;2023-03-03T21:56:02;4.70;99.90